createdAt,value
2023-01-06T00:00:16.058Z,12.82
2023-01-06T00:02:49.525Z,13.73
2023-01-06T00:05:16.679Z,14.07
2023-01-06T00:07:43.871Z,15.60
2023-01-06T00:10:18.517Z,13.13
2023-01-06T00:12:55.633Z,12.65
2023-01-06T00:15:22.721Z,12.77
2023-01-06T00:17:49.834Z,12.02
2023-01-06T00:20:23.519Z,11.25
2023-01-06T00:22:50.727Z,11.38
2023-01-06T00:25:24.543Z,12.13
2023-01-06T00:27:51.987Z,11.85
2023-01-06T00:30:25.534Z,12.32
2023-01-06T00:32:53.944Z,14.35
2023-01-06T00:35:29.068Z,14.02
2023-01-06T00:37:58.062Z,12.65
2023-01-06T00:40:31.750Z,12.35
2023-01-06T00:42:59.977Z,12.27
2023-01-06T00:45:26.970Z,11.75
2023-01-06T00:48:00.479Z,12.48
2023-01-06T00:50:27.902Z,12.18
2023-01-06T00:53:01.883Z,12.50
2023-01-06T00:55:36.453Z,11.77
2023-01-06T00:58:10.063Z,11.65
2023-01-06T01:00:37.093Z,12.63
2023-01-06T01:03:10.556Z,14.70
2023-01-06T01:05:38.204Z,14.10
2023-01-06T01:08:12.501Z,16.38
2023-01-06T01:10:39.946Z,15.90
2023-01-06T01:13:13.474Z,15.05
2023-01-06T01:15:40.487Z,15.32
2023-01-06T01:18:14.467Z,15.23
2023-01-06T01:20:42.017Z,14.27
2023-01-06T01:23:10.119Z,13.63
2023-01-06T01:25:44.253Z,14.00
2023-01-06T01:28:24.601Z,13.07
2023-01-06T01:31:10.855Z,13.70
2023-01-06T01:33:44.553Z,12.75
2023-01-06T01:36:14.373Z,12.52
2023-01-06T01:38:42.588Z,12.43
2023-01-06T01:41:22.545Z,11.52
2023-01-06T01:44:10.511Z,10.88
2023-01-06T01:46:41.403Z,11.07
2023-01-06T01:49:29.508Z,11.43
2023-01-06T01:51:56.577Z,10.70
2023-01-06T01:54:35.561Z,10.43
2023-01-06T01:57:13.529Z,11.52
2023-01-06T01:59:48.262Z,10.77
2023-01-06T02:02:16.291Z,10.45
2023-01-06T02:04:54.466Z,10.43
2023-01-06T02:07:26.037Z,10.48
2023-01-06T02:10:25.363Z,10.40
2023-01-06T02:13:05.551Z,10.90
2023-01-06T02:15:33.108Z,11.48
2023-01-06T02:18:30.584Z,11.50
2023-01-06T02:21:13.648Z,14.18
2023-01-06T02:24:17.273Z,13.88
2023-01-06T02:27:19.396Z,15.15
2023-01-06T02:30:14.526Z,14.60
2023-01-06T02:32:48.637Z,15.57
2023-01-06T02:35:28.541Z,14.45
2023-01-06T02:38:04.161Z,14.95
2023-01-06T02:41:36.534Z,15.45
2023-01-06T02:44:25.181Z,15.95
2023-01-06T02:47:28.544Z,16.08
2023-01-06T02:50:35.239Z,14.95
2023-01-06T02:53:39.569Z,15.25
2023-01-06T02:56:06.625Z,14.85
2023-01-06T02:58:54.537Z,16.67
2023-01-06T03:01:38.653Z,16.55
2023-01-06T03:04:16.568Z,15.75
2023-01-06T03:06:45.151Z,17.25
2023-01-06T03:09:24.536Z,17.35
2023-01-06T03:11:51.859Z,16.48
2023-01-06T03:14:43.507Z,16.88
2023-01-06T03:17:10.539Z,17.45
2023-01-06T03:19:44.558Z,17.20
2023-01-06T03:22:11.724Z,16.85
2023-01-06T03:24:45.525Z,16.33
2023-01-06T03:27:19.596Z,14.48
2023-01-06T03:29:53.569Z,17.52
2023-01-06T03:32:38.301Z,16.67
2023-01-06T03:35:38.531Z,17.77
2023-01-06T03:38:30.586Z,16.45
2023-01-06T03:41:17.555Z,17.35
2023-01-06T03:44:07.048Z,16.77
2023-01-06T03:46:58.585Z,17.35
2023-01-06T03:49:30.416Z,17.02
2023-01-06T03:52:34.519Z,17.42
2023-01-06T03:55:08.572Z,17.30
2023-01-06T03:57:44.654Z,18.27
2023-01-06T04:00:36.611Z,18.80
2023-01-06T04:03:07.481Z,17.00
2023-01-06T04:05:40.613Z,18.40
2023-01-06T04:08:14.672Z,17.60
2023-01-06T04:10:41.649Z,16.15
2023-01-06T04:13:15.610Z,15.48
2023-01-06T04:15:42.617Z,16.60
2023-01-06T04:18:16.634Z,14.68
2023-01-06T04:20:43.637Z,14.30
2023-01-06T04:23:17.695Z,15.07
2023-01-06T04:25:45.095Z,15.82
2023-01-06T04:28:12.174Z,15.27
2023-01-06T04:30:45.590Z,15.30
2023-01-06T04:33:12.641Z,16.85
2023-01-06T04:35:46.612Z,16.10
2023-01-06T04:38:13.604Z,15.43
2023-01-06T04:40:44.461Z,16.35
2023-01-06T04:43:17.581Z,16.05
2023-01-06T04:45:51.591Z,16.50
2023-01-06T04:48:18.573Z,16.55
2023-01-06T04:50:45.523Z,15.82
2023-01-06T04:53:19.604Z,14.85
2023-01-06T04:55:53.612Z,15.95
2023-01-06T04:58:20.675Z,15.57
2023-01-06T05:00:47.617Z,14.68
2023-01-06T05:03:21.598Z,15.55
2023-01-06T05:05:48.589Z,15.32
2023-01-06T05:08:21.581Z,15.25
2023-01-06T05:10:54.566Z,15.68
2023-01-06T05:13:27.567Z,14.73
2023-01-06T05:15:54.502Z,14.15
2023-01-06T05:18:21.456Z,15.40
2023-01-06T05:20:58.583Z,15.38
2023-01-06T05:23:31.604Z,14.35
2023-01-06T05:25:58.587Z,14.95
2023-01-06T05:28:25.687Z,15.98
2023-01-06T05:30:59.673Z,15.52
2023-01-06T05:33:26.723Z,14.70
2023-01-06T05:36:07.604Z,15.50
2023-01-06T05:38:34.738Z,14.98
2023-01-06T05:41:08.657Z,15.02
2023-01-06T05:43:42.626Z,16.50
2023-01-06T05:46:10.759Z,16.02
2023-01-06T05:48:44.694Z,16.98
2023-01-06T05:51:15.286Z,15.00
2023-01-06T05:53:50.616Z,15.18
2023-01-06T05:56:27.604Z,14.30
2023-01-06T05:58:54.559Z,13.30
2023-01-06T06:01:30.646Z,13.88
2023-01-06T06:03:58.024Z,13.20
2023-01-06T06:06:32.648Z,13.75
2023-01-06T06:08:59.804Z,14.18
2023-01-06T06:11:26.812Z,14.38
2023-01-06T06:14:01.683Z,12.88
2023-01-06T06:16:35.739Z,14.23
2023-01-06T06:19:02.830Z,13.77
2023-01-06T06:21:37.617Z,13.80
2023-01-06T06:24:11.714Z,13.43
2023-01-06T06:26:45.680Z,13.93
2023-01-06T06:29:12.734Z,13.63
2023-01-06T06:31:46.692Z,15.02
2023-01-06T06:34:14.002Z,15.77
2023-01-06T06:36:47.626Z,14.25
2023-01-06T06:39:14.630Z,14.05
2023-01-06T06:41:48.709Z,14.55
2023-01-06T06:44:28.647Z,15.40
2023-01-06T06:46:55.612Z,16.27
2023-01-06T06:49:28.697Z,14.98
2023-01-06T06:52:02.614Z,15.00
2023-01-06T06:54:29.556Z,14.82
2023-01-06T06:57:02.680Z,14.82
2023-01-06T06:59:29.741Z,13.57
2023-01-06T07:01:56.957Z,16.05
2023-01-06T07:04:30.690Z,13.80
2023-01-06T07:07:04.681Z,14.82
2023-01-06T07:09:31.797Z,15.10
2023-01-06T07:12:05.737Z,14.02
2023-01-06T07:14:32.764Z,14.15
2023-01-06T07:17:09.747Z,13.52
2023-01-06T07:19:43.651Z,13.40
2023-01-06T07:22:10.557Z,14.25
2023-01-06T07:24:43.679Z,13.93
2023-01-06T07:27:10.612Z,14.45
2023-01-06T07:29:44.712Z,14.02
2023-01-06T07:32:11.703Z,14.77
2023-01-06T07:34:45.677Z,14.07
2023-01-06T07:37:12.646Z,14.25
2023-01-06T07:39:45.729Z,13.57
2023-01-06T07:42:12.874Z,12.43
2023-01-06T07:44:46.737Z,13.65
2023-01-06T07:47:14.524Z,12.95
2023-01-06T07:49:47.647Z,13.43
2023-01-06T07:52:20.706Z,14.02
2023-01-06T07:54:47.931Z,13.30
2023-01-06T07:57:21.741Z,12.50
2023-01-06T07:59:48.803Z,14.35
2023-01-06T08:02:15.749Z,14.13
2023-01-06T08:04:49.679Z,15.80
2023-01-06T08:07:23.655Z,15.63
2023-01-06T08:09:50.646Z,13.90
2023-01-06T08:12:23.752Z,13.70
2023-01-06T08:14:50.695Z,14.15
2023-01-06T08:17:17.786Z,15.60
2023-01-06T08:19:51.684Z,15.18
2023-01-06T08:22:18.694Z,14.95
2023-01-06T08:24:51.762Z,15.77
2023-01-06T08:27:18.667Z,14.07
2023-01-06T08:29:52.686Z,16.50
2023-01-06T08:32:19.710Z,15.88
2023-01-06T08:34:53.670Z,15.77
2023-01-06T08:37:20.724Z,16.67
2023-01-06T08:39:54.703Z,15.38
2023-01-06T08:42:21.838Z,16.25
2023-01-06T08:44:55.953Z,15.88
2023-01-06T08:47:23.134Z,16.35
2023-01-06T08:49:56.666Z,16.20
2023-01-06T08:52:24.095Z,15.45
2023-01-06T08:54:57.658Z,15.43
2023-01-06T08:57:24.667Z,15.23
2023-01-06T08:59:51.612Z,16.25
2023-01-06T09:02:24.736Z,15.73
2023-01-06T09:04:57.699Z,16.42
2023-01-06T09:07:24.805Z,17.08
2023-01-06T09:09:51.874Z,15.70
2023-01-06T09:12:25.690Z,17.02
2023-01-06T09:14:52.685Z,17.17
2023-01-06T09:17:25.769Z,19.77
2023-01-06T09:19:53.198Z,16.80
2023-01-06T09:22:20.051Z,15.90
2023-01-06T09:24:53.691Z,17.00
2023-01-06T09:27:22.729Z,16.60
2023-01-06T09:29:56.718Z,16.80
2023-01-06T09:32:23.632Z,16.88
2023-01-06T09:34:56.633Z,17.13
2023-01-06T09:37:23.518Z,17.60
2023-01-06T09:39:50.429Z,16.98
2023-01-06T09:42:48.725Z,16.13
2023-01-06T09:45:20.655Z,16.45
2023-01-06T09:48:02.737Z,16.42
2023-01-06T09:50:48.733Z,16.15
2023-01-06T09:53:49.988Z,15.38
2023-01-06T09:56:23.709Z,16.25
2023-01-06T09:59:14.729Z,16.25
2023-01-06T10:01:46.017Z,16.70
2023-01-06T10:04:34.691Z,15.85
2023-01-06T10:07:21.638Z,15.27
2023-01-06T10:10:30.743Z,14.43
2023-01-06T10:13:26.771Z,14.30
2023-01-06T10:16:24.750Z,14.73
2023-01-06T10:19:11.914Z,13.63
2023-01-06T10:21:52.748Z,15.07
2023-01-06T10:24:31.734Z,13.23
2023-01-06T10:27:02.310Z,15.05
2023-01-06T10:29:38.715Z,15.18
2023-01-06T10:32:05.663Z,16.00
2023-01-06T10:34:39.763Z,14.80
2023-01-06T10:37:44.678Z,15.07
2023-01-06T10:40:27.814Z,14.52
2023-01-06T10:43:14.688Z,14.60
2023-01-06T10:45:47.013Z,15.10
2023-01-06T10:48:25.751Z,14.77
2023-01-06T10:50:52.829Z,14.32
2023-01-06T10:53:25.739Z,13.70
2023-01-06T10:56:08.708Z,15.27
2023-01-06T10:58:43.426Z,14.35
2023-01-06T11:01:33.863Z,14.57
2023-01-06T11:04:16.708Z,14.25
2023-01-06T11:06:53.986Z,14.52
2023-01-06T11:09:49.791Z,15.13
2023-01-06T11:12:20.635Z,14.63
2023-01-06T11:15:03.727Z,14.57
2023-01-06T11:17:31.056Z,14.57
2023-01-06T11:20:20.766Z,14.13
2023-01-06T11:22:54.867Z,14.35
2023-01-06T11:25:21.800Z,15.00
2023-01-06T11:28:19.102Z,15.05
2023-01-06T11:31:02.718Z,15.10
2023-01-06T11:33:32.243Z,15.25
2023-01-06T11:36:06.232Z,14.82
2023-01-06T11:38:39.748Z,14.80
2023-01-06T11:41:09.595Z,14.13
2023-01-06T11:43:42.734Z,15.55
2023-01-06T11:46:16.041Z,16.38
2023-01-06T11:48:47.325Z,15.50
2023-01-06T11:51:21.432Z,16.90
2023-01-06T11:53:57.823Z,16.65
2023-01-06T11:56:31.768Z,18.40
2023-01-06T11:59:15.800Z,16.77
2023-01-06T12:01:51.545Z,16.40
2023-01-06T12:04:53.745Z,15.40
2023-01-06T12:07:41.434Z,14.63
2023-01-06T12:10:27.743Z,14.57
2023-01-06T12:13:01.447Z,14.55
2023-01-06T12:15:35.789Z,14.63
2023-01-06T12:18:08.445Z,15.60
2023-01-06T12:20:47.061Z,15.13
2023-01-06T12:23:28.525Z,15.70
2023-01-06T12:26:20.814Z,15.50
2023-01-06T12:28:55.773Z,16.50
2023-01-06T12:31:34.460Z,14.88
2023-01-06T12:34:23.792Z,17.10
2023-01-06T12:37:02.010Z,15.85
2023-01-06T12:40:05.826Z,17.35
2023-01-06T12:42:58.254Z,17.02
2023-01-06T12:45:49.766Z,16.70
2023-01-06T12:48:49.780Z,16.70
2023-01-06T12:51:20.179Z,15.77
2023-01-06T12:54:40.893Z,16.65
2023-01-06T13:01:12.035Z,16.42
2023-01-06T13:04:25.321Z,15.07
2023-01-06T13:07:33.830Z,15.07
2023-01-06T13:10:07.323Z,15.23
2023-01-06T13:12:56.313Z,15.10
2023-01-06T13:15:40.341Z,15.10
2023-01-06T13:18:51.859Z,26.55
2023-01-06T13:21:20.560Z,16.50
2023-01-06T13:24:25.790Z,14.43
2023-01-06T13:27:47.861Z,14.60
2023-01-06T13:30:46.095Z,14.80
2023-01-06T13:33:37.869Z,13.80
2023-01-06T13:36:58.899Z,14.32
2023-01-06T13:39:46.071Z,13.93
2023-01-06T13:42:26.967Z,14.15
2023-01-06T13:45:00.851Z,13.32
2023-01-06T13:47:27.795Z,14.68
2023-01-06T13:49:54.712Z,14.13
2023-01-06T13:52:34.868Z,12.88
2023-01-06T13:55:11.829Z,14.07
2023-01-06T13:57:39.376Z,16.08
2023-01-06T14:00:12.781Z,15.00
2023-01-06T14:02:40.799Z,14.02
2023-01-06T14:05:28.833Z,13.75
2023-01-06T14:08:00.623Z,14.40
2023-01-06T14:10:52.829Z,13.85
2023-01-06T14:13:32.832Z,13.40
2023-01-06T14:16:12.060Z,14.57
2023-01-06T14:18:56.792Z,14.27
2023-01-06T14:21:29.975Z,14.75
2023-01-06T14:24:14.830Z,13.50
2023-01-06T14:27:02.847Z,13.93
2023-01-06T14:29:45.450Z,14.05
2023-01-06T14:32:21.885Z,12.50
2023-01-06T14:35:09.872Z,14.13
2023-01-06T14:38:11.825Z,12.75
2023-01-06T14:40:47.894Z,12.15
2023-01-06T14:43:40.889Z,11.63
2023-01-06T14:46:36.911Z,12.60
2023-01-06T14:49:12.840Z,12.50
2023-01-06T14:51:47.811Z,11.32
2023-01-06T14:54:38.583Z,11.35
2023-01-06T14:57:11.862Z,10.30
2023-01-06T14:59:38.791Z,10.77
2023-01-06T15:02:23.075Z,19.90
2023-01-06T15:04:50.106Z,17.10
2023-01-06T15:07:27.879Z,14.90
2023-01-06T15:10:15.922Z,16.67
2023-01-06T15:12:46.653Z,16.80
2023-01-06T15:15:36.867Z,16.13
2023-01-06T15:18:03.886Z,14.95
2023-01-06T15:20:47.017Z,15.95
2023-01-06T15:23:19.081Z,14.55
2023-01-06T15:25:56.399Z,14.77
2023-01-06T15:28:31.943Z,14.55
2023-01-06T15:31:05.984Z,13.90
2023-01-06T15:33:47.892Z,13.40
2023-01-06T15:36:20.494Z,15.48
2023-01-06T15:38:54.078Z,13.18
2023-01-06T15:41:22.330Z,11.57
2023-01-06T15:43:55.864Z,9.32
2023-01-06T15:46:22.793Z,8.63
2023-01-06T15:48:56.406Z,8.82
2023-01-06T15:51:23.399Z,9.55
2023-01-06T15:54:04.307Z,11.60
2023-01-06T15:56:31.781Z,10.07
2023-01-06T15:58:58.974Z,9.50
2023-01-06T16:01:33.816Z,10.50
2023-01-06T16:04:00.822Z,11.20
2023-01-06T16:06:41.936Z,11.30
2023-01-06T16:09:27.917Z,11.63
2023-01-06T16:12:25.874Z,10.25
2023-01-06T16:14:58.876Z,10.95
2023-01-06T16:17:31.710Z,10.35
2023-01-06T16:20:07.180Z,9.40
2023-01-06T16:22:49.177Z,10.52
2023-01-06T16:25:32.919Z,9.45
2023-01-06T16:28:04.776Z,10.30
2023-01-06T16:30:41.952Z,10.65
2023-01-06T16:33:48.969Z,11.18
2023-01-06T16:36:17.694Z,11.52
2023-01-06T16:38:46.273Z,10.23
2023-01-06T16:41:24.913Z,10.20
2023-01-06T16:43:51.915Z,10.73
2023-01-06T16:46:30.026Z,13.27
2023-01-06T16:49:00.951Z,13.55
2023-01-06T16:51:28.717Z,11.68
2023-01-06T16:54:03.025Z,22.77
2023-01-06T16:56:31.180Z,15.60
2023-01-06T16:59:06.298Z,12.05
2023-01-06T17:01:34.706Z,11.20
2023-01-06T17:04:07.927Z,10.45
2023-01-06T17:06:35.850Z,13.65
2023-01-06T17:09:09.960Z,13.55
2023-01-06T17:11:36.843Z,12.80
2023-01-06T17:14:09.211Z,12.38
2023-01-06T17:16:46.144Z,11.82
2023-01-06T17:19:31.818Z,15.25
2023-01-06T17:22:21.507Z,12.38
2023-01-06T17:24:55.468Z,11.32
2023-01-06T17:27:26.036Z,11.15
2023-01-06T17:30:00.946Z,10.93
2023-01-06T17:32:45.013Z,12.52
2023-01-06T17:35:30.435Z,12.77
2023-01-06T17:38:08.975Z,10.95
2023-01-06T17:40:39.719Z,12.07
2023-01-06T17:43:38.927Z,11.95
2023-01-06T17:46:35.985Z,12.73
2023-01-06T17:49:37.039Z,12.05
2023-01-06T17:52:37.824Z,12.27
2023-01-06T17:55:32.982Z,14.60
2023-01-06T17:58:07.043Z,13.73
2023-01-06T18:00:36.188Z,13.38
2023-01-06T18:03:06.322Z,13.27
2023-01-06T18:05:42.177Z,13.13
2023-01-06T18:08:09.905Z,12.57
2023-01-06T18:10:57.043Z,14.85
2023-01-06T18:13:40.421Z,15.80
2023-01-06T18:16:42.322Z,14.13
2023-01-06T18:23:45.446Z,14.23
2023-01-06T18:26:42.420Z,13.35
2023-01-06T18:29:24.488Z,13.85
2023-01-06T18:31:59.391Z,14.65
2023-01-06T18:34:32.140Z,14.48
2023-01-06T18:37:08.023Z,13.45
2023-01-06T18:39:53.078Z,13.70
2023-01-06T18:42:44.518Z,12.15
2023-01-06T18:45:38.001Z,14.00
2023-01-06T18:48:38.424Z,12.80
2023-01-06T18:51:21.515Z,13.27
2023-01-06T18:53:56.092Z,12.88
2023-01-06T18:56:31.099Z,13.82
2023-01-06T18:58:58.564Z,14.55
2023-01-06T19:01:52.030Z,13.95
2023-01-06T19:04:42.721Z,13.50
2023-01-06T19:07:27.733Z,13.75
2023-01-06T19:10:01.021Z,14.07
2023-01-06T19:12:34.471Z,14.30
2023-01-06T19:15:21.026Z,13.70
2023-01-06T19:17:48.020Z,15.82
2023-01-06T19:20:31.991Z,20.85
2023-01-06T19:22:58.859Z,19.13
2023-01-06T19:25:44.015Z,17.25
2023-01-06T19:28:32.016Z,16.48
2023-01-06T19:31:11.997Z,15.32
2023-01-06T19:33:46.893Z,15.25
2023-01-06T19:36:48.082Z,14.10
2023-01-06T19:39:30.001Z,14.75
2023-01-06T19:42:11.883Z,14.93
2023-01-06T19:44:44.998Z,14.50
2023-01-06T19:47:36.996Z,14.45
2023-01-06T19:50:19.216Z,14.18
2023-01-06T19:52:52.992Z,14.43
2023-01-06T19:55:30.596Z,14.48
2023-01-06T19:58:25.991Z,14.50
2023-01-06T20:00:52.938Z,16.80
2023-01-06T20:03:36.976Z,17.13
2023-01-06T20:06:04.230Z,16.77
2023-01-06T20:08:37.998Z,15.82
2023-01-06T20:11:12.021Z,15.07
2023-01-06T20:13:38.945Z,16.27
2023-01-06T20:16:13.075Z,15.10
2023-01-06T20:18:40.014Z,15.05
2023-01-06T20:21:13.034Z,15.48
2023-01-06T20:23:39.884Z,15.35
2023-01-06T20:26:06.766Z,15.73
2023-01-06T20:28:40.029Z,15.65
2023-01-06T20:31:06.909Z,16.10
2023-01-06T20:33:40.036Z,15.55
2023-01-06T20:36:08.037Z,14.48
2023-01-06T20:38:35.074Z,14.50
2023-01-06T20:41:08.064Z,14.13
2023-01-06T20:43:35.001Z,13.82
2023-01-06T20:46:02.036Z,15.45
2023-01-06T20:48:35.052Z,15.60
2023-01-06T20:51:02.120Z,13.90
2023-01-06T20:53:35.032Z,14.82
2023-01-06T20:56:01.908Z,14.75
2023-01-06T20:58:28.804Z,15.35
2023-01-06T21:01:02.122Z,15.05
2023-01-06T21:03:29.082Z,15.05
2023-01-06T21:06:02.090Z,15.43
2023-01-06T21:08:29.031Z,16.30
2023-01-06T21:10:55.960Z,15.73
2023-01-06T21:13:29.076Z,15.15
2023-01-06T21:16:02.067Z,14.70
2023-01-06T21:18:47.002Z,15.40
2023-01-06T21:21:13.915Z,15.13
2023-01-06T21:23:47.071Z,14.70
2023-01-06T21:26:13.987Z,15.63
2023-01-06T21:28:47.062Z,15.93
2023-01-06T21:31:14.044Z,14.98
2023-01-06T21:33:48.543Z,15.85
2023-01-06T21:36:18.076Z,15.25
2023-01-06T21:38:45.592Z,15.32
2023-01-06T21:41:19.345Z,15.20
2023-01-06T21:43:47.100Z,14.88
2023-01-06T21:46:22.322Z,15.85
2023-01-06T21:48:49.783Z,15.77
2023-01-06T21:51:25.004Z,15.48
2023-01-06T21:53:59.053Z,14.73
2023-01-06T21:56:26.003Z,14.98
2023-01-06T21:59:00.134Z,14.82
2023-01-06T22:01:34.223Z,15.48
2023-01-06T22:04:08.173Z,15.48
2023-01-06T22:06:43.195Z,14.75
2023-01-06T22:09:12.275Z,15.30
2023-01-06T22:11:46.142Z,15.98
2023-01-06T22:14:14.055Z,15.35
2023-01-06T22:16:42.051Z,14.82
2023-01-06T22:19:20.230Z,16.33
2023-01-06T22:21:48.111Z,15.02
2023-01-06T22:24:23.003Z,15.60
2023-01-06T22:26:51.071Z,15.35
2023-01-06T22:29:31.151Z,15.65
2023-01-06T22:32:05.042Z,15.70
2023-01-06T22:34:39.139Z,17.10
2023-01-06T22:37:07.271Z,15.68
2023-01-06T22:39:42.196Z,16.60
2023-01-06T22:42:16.174Z,16.20
2023-01-06T22:44:50.122Z,16.58
2023-01-06T22:47:24.527Z,17.23
2023-01-06T22:50:03.597Z,16.98
2023-01-06T22:52:36.101Z,16.63
2023-01-06T22:57:58.340Z,15.98
2023-01-06T23:00:35.342Z,15.93
2023-01-06T23:03:02.371Z,16.20
2023-01-06T23:05:36.144Z,16.77
2023-01-06T23:08:03.896Z,18.08
2023-01-06T23:10:37.137Z,17.30
2023-01-06T23:13:04.082Z,16.80
2023-01-06T23:15:37.173Z,16.63
2023-01-06T23:18:04.751Z,16.88
2023-01-06T23:20:32.920Z,16.15
2023-01-06T23:23:07.709Z,17.05
2023-01-06T23:25:34.626Z,18.27
2023-01-06T23:28:01.874Z,18.95
2023-01-06T23:30:36.681Z,17.63
2023-01-06T23:33:12.031Z,15.75
2023-01-06T23:35:39.042Z,17.80
2023-01-06T23:38:06.828Z,17.73
2023-01-06T23:40:40.094Z,18.05
2023-01-06T23:43:07.394Z,18.65
2023-01-06T23:45:34.782Z,18.52
2023-01-06T23:48:09.093Z,18.58
2023-01-06T23:50:36.069Z,18.05
2023-01-06T23:53:10.916Z,17.77
2023-01-06T23:55:38.182Z,17.77
2023-01-06T23:58:11.885Z,19.85
